createdAt,value
2023-09-15T00:01:47.998Z,6.43
2023-09-15T00:04:49.404Z,5.55
2023-09-15T00:07:50.781Z,5.28
2023-09-15T00:10:52.114Z,5.40
2023-09-15T00:13:53.550Z,6.57
2023-09-15T00:16:54.956Z,5.67
2023-09-15T00:19:56.309Z,5.75
2023-09-15T00:22:57.661Z,6.18
2023-09-15T00:25:59.002Z,6.65
2023-09-15T00:29:00.351Z,5.53
2023-09-15T00:32:01.719Z,6.17
2023-09-15T00:35:03.133Z,6.07
2023-09-15T00:38:04.512Z,4.80
2023-09-15T00:41:05.995Z,5.88
2023-09-15T00:44:07.348Z,5.85
2023-09-15T00:47:08.704Z,6.17
2023-09-15T00:50:10.024Z,5.82
2023-09-15T00:53:11.356Z,6.13
2023-09-15T00:56:12.712Z,5.20
2023-09-15T00:59:14.086Z,5.22
2023-09-15T01:02:15.471Z,5.53
2023-09-15T01:05:16.792Z,6.07
2023-09-15T01:08:18.146Z,5.78
2023-09-15T01:11:19.500Z,6.20
2023-09-15T01:14:20.859Z,5.50
2023-09-15T01:17:22.184Z,5.90
2023-09-15T01:20:23.538Z,5.82
2023-09-15T01:23:24.882Z,6.35
2023-09-15T01:26:26.228Z,5.80
2023-09-15T01:29:27.548Z,6.32
2023-09-15T01:32:28.932Z,5.47
2023-09-15T01:35:30.321Z,6.00
2023-09-15T01:38:31.636Z,5.75
2023-09-15T01:41:32.979Z,5.55
2023-09-15T01:44:34.306Z,5.55
2023-09-15T01:47:35.658Z,5.20
2023-09-15T01:50:37.033Z,5.88
2023-09-15T01:53:38.375Z,5.18
2023-09-15T01:56:39.772Z,5.47
2023-09-15T01:59:41.100Z,5.70
2023-09-15T02:02:42.559Z,4.73
2023-09-15T02:05:43.961Z,8.20
2023-09-15T02:08:45.454Z,5.43
2023-09-15T02:11:46.966Z,5.97
2023-09-15T02:14:48.332Z,5.47
2023-09-15T02:17:49.702Z,6.23
2023-09-15T02:20:51.092Z,7.50
2023-09-15T02:23:52.430Z,4.28
2023-09-15T02:26:53.777Z,5.47
2023-09-15T02:29:55.120Z,4.63
2023-09-15T02:32:56.503Z,5.10
2023-09-15T02:35:57.870Z,5.53
2023-09-15T02:38:59.205Z,5.40
2023-09-15T02:42:00.580Z,5.97
2023-09-15T02:45:01.938Z,5.63
2023-09-15T02:48:03.335Z,5.57
2023-09-15T02:51:05.164Z,5.70
2023-09-15T02:54:06.503Z,5.10
2023-09-15T02:57:07.865Z,5.90
2023-09-15T03:00:09.274Z,5.57
2023-09-15T03:03:10.679Z,5.13
2023-09-15T03:06:12.114Z,5.55
2023-09-15T03:09:13.457Z,5.72
2023-09-15T03:12:14.785Z,4.97
2023-09-15T03:15:16.133Z,6.88
2023-09-15T03:18:17.525Z,5.43
2023-09-15T03:21:18.928Z,5.95
2023-09-15T03:24:20.298Z,5.57
2023-09-15T03:27:21.651Z,5.50
2023-09-15T03:30:23.033Z,5.57
2023-09-15T03:33:24.368Z,6.17
2023-09-15T03:36:25.702Z,5.15
2023-09-15T03:39:27.040Z,5.70
2023-09-15T03:42:28.426Z,5.70
2023-09-15T03:45:29.866Z,7.45
2023-09-15T03:48:31.212Z,7.00
2023-09-15T03:51:32.541Z,8.63
2023-09-15T03:54:33.927Z,7.82
2023-09-15T03:57:35.272Z,7.63
2023-09-15T04:00:36.614Z,6.72
2023-09-15T04:03:37.982Z,7.50
2023-09-15T04:06:39.399Z,7.18
2023-09-15T04:09:40.733Z,6.60
2023-09-15T04:12:42.092Z,7.43
2023-09-15T04:15:43.423Z,6.47
2023-09-15T04:18:44.966Z,6.77
2023-09-15T04:21:46.504Z,5.97
2023-09-15T04:24:48.034Z,6.22
2023-09-15T04:27:49.549Z,6.18
2023-09-15T04:30:50.938Z,7.43
2023-09-15T04:33:52.328Z,10.27
2023-09-15T04:36:53.711Z,7.50
2023-09-15T04:39:55.117Z,8.60
2023-09-15T04:42:56.532Z,6.38
2023-09-15T04:45:57.974Z,8.30
2023-09-15T04:48:59.438Z,7.33
2023-09-15T04:52:00.845Z,6.20
2023-09-15T04:55:02.283Z,10.35
2023-09-15T04:58:03.700Z,7.82
2023-09-15T05:01:05.187Z,8.85
2023-09-15T05:04:06.688Z,7.37
2023-09-15T05:07:08.127Z,9.40
2023-09-15T05:10:09.512Z,6.05
2023-09-15T05:13:11.036Z,6.05
2023-09-15T05:16:12.488Z,6.68
2023-09-15T05:19:13.916Z,6.20
2023-09-15T05:22:15.379Z,6.68
2023-09-15T05:25:16.803Z,5.45
2023-09-15T05:28:18.220Z,6.03
2023-09-15T05:31:19.626Z,6.18
2023-09-15T05:34:21.073Z,5.13
2023-09-15T05:37:22.495Z,7.25
2023-09-15T05:40:23.926Z,10.18
2023-09-15T05:43:25.327Z,7.50
2023-09-15T05:46:26.875Z,6.63
2023-09-15T05:49:30.441Z,17.70
2023-09-15T05:52:32.653Z,11.02
2023-09-15T05:55:34.057Z,142.65
2023-09-15T05:58:35.438Z,48.97
2023-09-15T06:01:36.830Z,27.40
2023-09-15T06:04:38.295Z,41.10
2023-09-15T06:07:39.718Z,46.83
2023-09-15T06:10:41.360Z,46.22
2023-09-15T06:13:42.824Z,33.17
2023-09-15T06:16:44.252Z,39.63
2023-09-15T06:19:45.738Z,59.13
2023-09-15T06:22:47.162Z,34.65
2023-09-15T06:25:48.511Z,30.15
2023-09-15T06:28:50.095Z,29.15
2023-09-15T06:31:51.874Z,26.67
2023-09-15T06:34:53.293Z,26.33
2023-09-15T06:37:54.617Z,17.25
2023-09-15T06:40:55.969Z,17.15
2023-09-15T06:43:57.315Z,19.17
2023-09-15T06:46:58.754Z,18.80
2023-09-15T06:50:00.187Z,18.93
2023-09-15T06:53:01.560Z,17.98
2023-09-15T06:56:02.902Z,14.27
2023-09-15T06:59:04.283Z,15.15
2023-09-15T07:02:06.090Z,17.50
2023-09-15T07:05:07.491Z,24.10
2023-09-15T07:08:08.890Z,13.95
2023-09-15T07:11:10.312Z,17.83
2023-09-15T07:14:11.702Z,12.65
2023-09-15T07:17:13.072Z,8.88
2023-09-15T07:20:14.477Z,13.43
2023-09-15T07:23:15.989Z,15.35
2023-09-15T07:26:17.401Z,12.65
2023-09-15T07:29:18.761Z,11.73
2023-09-15T07:32:20.106Z,12.27
2023-09-15T07:35:21.465Z,14.30
2023-09-15T07:38:22.814Z,16.58
2023-09-15T07:41:24.168Z,14.48
2023-09-15T07:44:25.545Z,18.52
2023-09-15T07:47:26.948Z,19.25
2023-09-15T07:50:28.319Z,12.50
2023-09-15T07:53:29.649Z,10.68
2023-09-15T07:56:31.002Z,8.90
2023-09-15T07:59:32.376Z,8.40
2023-09-15T08:02:33.728Z,93.95
2023-09-15T08:05:35.166Z,124.10
2023-09-15T08:08:36.519Z,109.50
2023-09-15T08:11:38.143Z,71.30
2023-09-15T08:14:39.478Z,78.88
2023-09-15T08:17:41.063Z,78.80
2023-09-15T08:20:42.510Z,62.13
2023-09-15T08:23:43.943Z,58.50
2023-09-15T08:26:45.493Z,44.45
2023-09-15T08:29:47.048Z,29.70
2023-09-15T08:32:48.552Z,34.50
2023-09-15T08:35:49.895Z,41.90
2023-09-15T08:38:51.269Z,25.55
2023-09-15T08:41:52.599Z,21.23
2023-09-15T08:44:53.970Z,42.85
2023-09-15T08:47:55.355Z,22.67
2023-09-15T08:50:56.765Z,18.60
2023-09-15T08:53:58.161Z,22.65
2023-09-15T08:56:59.521Z,25.73
2023-09-15T09:00:01.010Z,29.00
2023-09-15T09:03:02.419Z,27.38
2023-09-15T09:06:03.836Z,15.87
2023-09-15T09:09:05.161Z,16.20
2023-09-15T09:12:06.516Z,17.58
2023-09-15T09:15:07.834Z,20.42
2023-09-15T09:18:09.910Z,26.15
2023-09-15T09:21:11.373Z,20.53
2023-09-15T09:24:12.698Z,21.45
2023-09-15T09:27:14.068Z,16.02
2023-09-15T09:30:15.407Z,13.93
2023-09-15T09:33:16.742Z,18.65
2023-09-15T09:36:18.504Z,13.30
2023-09-15T09:39:20.158Z,13.43
2023-09-15T09:42:21.559Z,15.13
2023-09-15T09:45:22.926Z,12.15
2023-09-15T09:48:24.369Z,12.13
2023-09-15T09:51:25.851Z,9.03
2023-09-15T09:54:27.286Z,13.15
2023-09-15T09:57:28.748Z,10.60
2023-09-15T10:00:30.185Z,12.25
2023-09-15T10:03:31.610Z,13.43
2023-09-15T10:06:33.016Z,13.97
2023-09-15T10:09:34.408Z,14.85
2023-09-15T10:12:35.833Z,17.45
2023-09-15T10:15:37.285Z,16.80
2023-09-15T10:18:38.702Z,12.27
2023-09-15T10:21:40.114Z,11.40
2023-09-15T10:24:41.547Z,12.15
2023-09-15T10:27:42.918Z,12.27
2023-09-15T10:30:44.286Z,15.38
2023-09-15T10:33:45.735Z,11.63
2023-09-15T10:36:47.257Z,13.13
2023-09-15T10:39:48.642Z,12.35
2023-09-15T10:42:49.997Z,11.00
2023-09-15T10:45:51.358Z,7.22
2023-09-15T10:48:53.189Z,9.93
2023-09-15T10:51:54.904Z,11.97
2023-09-15T10:54:56.398Z,8.82
2023-09-15T10:57:57.765Z,10.73
2023-09-15T11:00:59.142Z,13.25
2023-09-15T11:04:00.514Z,9.97
2023-09-15T11:07:01.903Z,9.37
2023-09-15T11:10:03.264Z,11.73
2023-09-15T11:13:04.662Z,12.98
2023-09-15T11:16:06.097Z,13.25
2023-09-15T11:19:07.473Z,8.15
2023-09-15T11:22:08.809Z,7.53
2023-09-15T11:25:17.146Z,12.30
2023-09-15T11:28:19.231Z,9.52
2023-09-15T11:31:20.594Z,14.15
2023-09-15T11:34:22.017Z,9.13
2023-09-15T11:37:23.451Z,8.60
2023-09-15T11:40:24.804Z,8.05
2023-09-15T11:43:26.154Z,13.00
2023-09-15T11:46:27.536Z,9.48
2023-09-15T11:49:28.946Z,11.52
2023-09-15T11:52:30.297Z,8.73
2023-09-15T11:55:31.673Z,10.15
2023-09-15T11:58:33.025Z,7.75
2023-09-15T12:01:34.422Z,9.63
2023-09-15T12:04:35.879Z,8.05
2023-09-15T12:07:37.297Z,5.13
2023-09-15T12:10:38.695Z,12.55
2023-09-15T12:13:40.157Z,14.43
2023-09-15T12:16:41.602Z,22.20
2023-09-15T12:19:42.973Z,17.15
2023-09-15T12:22:44.323Z,13.17
2023-09-15T12:25:45.645Z,9.98
2023-09-15T12:28:47.181Z,7.15
2023-09-15T12:31:48.839Z,11.80
2023-09-15T12:34:50.224Z,6.40
2023-09-15T12:37:51.601Z,9.77
2023-09-15T12:40:52.918Z,11.68
2023-09-15T12:43:54.279Z,31.15
2023-09-15T12:46:55.751Z,23.85
2023-09-15T12:49:57.156Z,17.80
2023-09-15T12:52:58.476Z,20.00
2023-09-15T12:55:59.812Z,15.40
2023-09-15T12:59:01.151Z,19.42
2023-09-15T13:02:02.611Z,15.20
2023-09-15T13:05:04.275Z,19.73
2023-09-15T13:08:05.866Z,12.43
2023-09-15T13:11:07.191Z,16.67
2023-09-15T13:14:08.539Z,14.95
2023-09-15T13:17:09.878Z,31.38
2023-09-15T13:20:11.229Z,26.40
2023-09-15T13:23:12.614Z,39.67
2023-09-15T13:26:13.975Z,32.67
2023-09-15T13:29:15.329Z,29.20
2023-09-15T13:32:16.696Z,35.63
2023-09-15T13:35:18.053Z,34.38
2023-09-15T13:38:19.413Z,36.00
2023-09-15T13:41:20.776Z,24.92
2023-09-15T13:44:22.087Z,22.00
2023-09-15T13:47:23.406Z,25.88
2023-09-15T13:50:24.857Z,27.83
2023-09-15T13:53:26.224Z,22.83
2023-09-15T13:56:27.576Z,26.33
2023-09-15T13:59:28.970Z,25.17
2023-09-15T14:02:30.310Z,23.92
2023-09-15T14:05:31.677Z,19.65
2023-09-15T14:08:33.022Z,16.07
2023-09-15T14:11:34.378Z,22.05
2023-09-15T14:14:35.770Z,18.25
2023-09-15T14:17:38.365Z,14.35
2023-09-15T14:20:39.733Z,24.25
2023-09-15T14:23:41.088Z,17.37
2023-09-15T14:26:42.436Z,14.60
2023-09-15T14:29:43.836Z,12.73
2023-09-15T14:32:45.231Z,12.85
2023-09-15T14:35:46.602Z,10.55
2023-09-15T14:38:48.204Z,16.17
2023-09-15T14:41:49.681Z,14.57
2023-09-15T14:44:51.015Z,10.75
2023-09-15T14:47:52.385Z,11.13
2023-09-15T14:50:53.768Z,11.75
2023-09-15T14:53:55.128Z,10.07
2023-09-15T14:56:56.485Z,9.88
2023-09-15T14:59:57.819Z,14.93
2023-09-15T15:02:59.219Z,9.30
2023-09-15T15:06:00.600Z,7.28
2023-09-15T15:09:01.940Z,9.00
2023-09-15T15:12:03.296Z,6.90
2023-09-15T15:15:04.630Z,12.43
2023-09-15T15:18:08.054Z,7.95
2023-09-15T15:21:11.176Z,8.35
2023-09-15T15:24:12.553Z,6.23
2023-09-15T15:27:13.935Z,7.22
2023-09-15T15:30:15.540Z,10.23
2023-09-15T15:33:16.947Z,7.70
2023-09-15T15:36:18.309Z,9.73
2023-09-15T15:39:19.700Z,9.60
2023-09-15T15:42:21.089Z,9.45
2023-09-15T15:45:22.498Z,8.00
2023-09-15T15:48:23.857Z,7.18
2023-09-15T15:51:25.258Z,7.45
2023-09-15T15:54:26.699Z,8.40
2023-09-15T15:57:28.056Z,8.82
2023-09-15T16:00:29.508Z,8.90
2023-09-15T16:03:30.982Z,8.38
2023-09-15T16:06:32.526Z,9.05
2023-09-15T16:09:34.068Z,7.10
2023-09-15T16:12:35.546Z,7.18
2023-09-15T16:15:36.960Z,8.13
2023-09-15T16:18:38.441Z,6.10
2023-09-15T16:21:39.878Z,9.57
2023-09-15T16:24:41.394Z,6.63
2023-09-15T16:27:42.799Z,6.68
2023-09-15T16:30:44.254Z,8.13
2023-09-15T16:33:45.706Z,9.75
2023-09-15T16:36:47.151Z,7.05
2023-09-15T16:39:48.787Z,9.17
2023-09-15T16:42:50.270Z,7.82
2023-09-15T16:45:51.652Z,7.85
2023-09-15T16:48:53.125Z,7.53
2023-09-15T16:51:54.606Z,6.93
2023-09-15T16:54:56.121Z,6.70
2023-09-15T16:57:57.565Z,10.40
2023-09-15T17:00:58.938Z,7.28
2023-09-15T17:04:01.437Z,9.23
2023-09-15T17:07:02.972Z,7.35
2023-09-15T17:10:04.460Z,7.70
2023-09-15T17:13:05.900Z,10.70
2023-09-15T17:16:07.342Z,7.72
2023-09-15T17:19:08.704Z,7.93
2023-09-15T17:22:10.062Z,8.32
2023-09-15T17:25:11.396Z,9.93
2023-09-15T17:28:12.748Z,9.18
2023-09-15T17:31:14.096Z,9.63
2023-09-15T17:34:15.430Z,9.55
2023-09-15T17:37:16.886Z,9.48
2023-09-15T17:40:18.230Z,8.33
2023-09-15T17:43:19.619Z,9.43
2023-09-15T17:46:21.058Z,10.07
2023-09-15T17:49:22.460Z,8.73
2023-09-15T17:52:23.788Z,9.40
2023-09-15T17:55:25.479Z,11.27
2023-09-15T17:58:26.926Z,7.90
2023-09-15T18:01:28.444Z,10.20
2023-09-15T18:04:30.073Z,12.98
2023-09-15T18:07:31.474Z,12.80
2023-09-15T18:10:32.801Z,8.87
2023-09-15T18:13:34.260Z,9.10
2023-09-15T18:16:35.707Z,11.57
2023-09-15T18:19:37.058Z,10.80
2023-09-15T18:22:38.409Z,9.48
2023-09-15T18:25:39.795Z,10.20
2023-09-15T18:28:41.418Z,9.38
2023-09-15T18:31:43.236Z,11.73
2023-09-15T18:34:45.016Z,10.32
2023-09-15T18:37:46.815Z,8.73
2023-09-15T18:40:48.631Z,9.50
2023-09-15T18:43:50.424Z,11.98
2023-09-15T18:46:51.878Z,10.65
2023-09-15T18:49:53.270Z,8.60
2023-09-15T18:52:55.081Z,8.18
2023-09-15T18:55:56.525Z,9.57
2023-09-15T18:58:58.366Z,11.25
2023-09-15T19:01:59.801Z,8.60
2023-09-15T19:05:01.157Z,9.43
2023-09-15T19:08:02.523Z,8.27
2023-09-15T19:11:04.372Z,8.80
2023-09-15T19:14:05.868Z,8.20
2023-09-15T19:17:07.650Z,7.15
2023-09-15T19:20:09.521Z,10.40
2023-09-15T19:23:11.389Z,10.13
2023-09-15T19:26:13.258Z,9.10
2023-09-15T19:29:15.154Z,8.55
2023-09-15T19:32:16.629Z,8.48
2023-09-15T19:35:18.448Z,8.15
2023-09-15T19:38:20.388Z,8.38
2023-09-15T19:41:21.830Z,8.27
2023-09-15T19:44:23.189Z,9.95
2023-09-15T19:47:24.540Z,9.52
2023-09-15T19:50:25.888Z,7.05
2023-09-15T19:53:27.663Z,7.80
2023-09-15T19:56:29.582Z,9.37
2023-09-15T19:59:31.052Z,5.82
2023-09-15T20:02:32.899Z,7.90
2023-09-15T20:05:34.362Z,7.45
2023-09-15T20:08:36.126Z,8.10
2023-09-15T20:11:37.971Z,9.63
2023-09-15T20:14:39.423Z,6.85
2023-09-15T20:17:40.943Z,6.85
2023-09-15T20:20:46.800Z,7.28
2023-09-15T20:23:49.270Z,9.15
2023-09-15T20:26:50.836Z,8.07
2023-09-15T20:29:52.180Z,8.88
2023-09-15T20:32:53.621Z,6.90
2023-09-15T20:35:55.000Z,6.60
2023-09-15T20:38:56.349Z,7.65
2023-09-15T20:41:57.680Z,7.07
2023-09-15T20:44:59.029Z,6.47
2023-09-15T20:48:00.449Z,8.77
2023-09-15T20:51:01.828Z,6.15
2023-09-15T20:54:03.181Z,7.13
2023-09-15T20:57:04.547Z,6.43
2023-09-15T21:00:05.946Z,6.57
2023-09-15T21:03:07.337Z,7.90
2023-09-15T21:06:08.676Z,7.95
2023-09-15T21:09:10.027Z,8.88
2023-09-15T21:12:11.379Z,9.53
2023-09-15T21:15:12.707Z,7.70
2023-09-15T21:18:14.149Z,5.45
2023-09-15T21:21:15.537Z,6.63
2023-09-15T21:24:16.925Z,7.00
2023-09-15T21:27:18.274Z,7.73
2023-09-15T21:30:19.629Z,7.22
2023-09-15T21:33:21.042Z,5.90
2023-09-15T21:36:22.414Z,6.70
2023-09-15T21:39:23.770Z,7.65
2023-09-15T21:42:25.180Z,7.07
2023-09-15T21:45:26.564Z,5.80
2023-09-15T21:48:27.958Z,6.75
2023-09-15T21:51:29.403Z,7.20
2023-09-15T21:54:30.805Z,6.53
2023-09-15T21:57:32.164Z,5.90
2023-09-15T22:00:33.553Z,6.03
2023-09-15T22:03:35.034Z,5.72
2023-09-15T22:06:36.495Z,5.85
2023-09-15T22:09:37.900Z,7.00
2023-09-15T22:12:39.289Z,6.20
2023-09-15T22:15:40.683Z,6.35
2023-09-15T22:18:42.086Z,5.75
2023-09-15T22:21:43.435Z,5.85
2023-09-15T22:24:44.875Z,6.80
2023-09-15T22:27:46.285Z,6.60
2023-09-15T22:30:47.693Z,6.22
2023-09-15T22:33:49.099Z,5.75
2023-09-15T22:36:50.545Z,6.80
2023-09-15T22:39:51.963Z,6.57
2023-09-15T22:42:53.471Z,5.37
2023-09-15T22:45:54.970Z,6.43
2023-09-15T22:48:56.359Z,6.57
2023-09-15T22:51:57.792Z,5.78
2023-09-15T22:54:59.221Z,6.30
2023-09-15T22:58:00.604Z,6.47
2023-09-15T23:01:02.112Z,5.35
2023-09-15T23:04:03.567Z,5.15
2023-09-15T23:07:04.934Z,5.63
2023-09-15T23:10:06.305Z,7.45
2023-09-15T23:13:07.666Z,6.37
2023-09-15T23:16:09.120Z,5.68
2023-09-15T23:19:10.553Z,6.20
2023-09-15T23:22:11.939Z,5.30
2023-09-15T23:25:13.264Z,5.88
2023-09-15T23:28:14.601Z,6.07
2023-09-15T23:31:16.262Z,5.43
2023-09-15T23:34:17.725Z,5.78
2023-09-15T23:37:19.052Z,5.53
2023-09-15T23:40:20.388Z,6.68
2023-09-15T23:43:21.764Z,5.80
2023-09-15T23:46:23.115Z,5.32
2023-09-15T23:49:24.500Z,6.20
2023-09-15T23:52:25.848Z,5.65
2023-09-15T23:55:27.194Z,5.25
2023-09-15T23:58:28.550Z,5.80
